Terminal Aerodrome Forecast
Issued by NWS

Home | Current Version | Previous Version | Text Only | Print | Product List | Glossary On
Versions: 1 2 3 4 5 6 7 8 9 10 11
000
FTUS46 KSEW 122320
TAFPAE
TAF
KPAE 122320Z 1300/1324 35004KT P6SM SKC
     FM130300 00000KT P6SM SCT250
     FM131300 01002KT 1SM BR VCFG SCT001
     FM132000 36003KT P6SM SKC=

USA.gov is the U.S. government's official web portal to all federal, state and local government web resources and services.